Alborn, Minnesota
Current Conditions -  °F | °C
As of 11:16 AM on Monday 22 Dec 2014 (Local Time) from KCOQ Reporting Station
Haze Haze  
Wind Chill: 28°   Ceiling: 200
Heat Index: 34°   Visibility: 1.2mi
Dew Point: 34°   Wind: 7mph
Humidity: 100%   Direction: 110°ESE
Pressure: 29.67"   Gusts: NA
Location:  46.97°N, 92.58°W
Report Text: KCOQ 221716Z AUTO 11006KT 1 1/4SM BR OVC002 01/01 A2967 RMK AO2
Loading
Personal Weather Stations






























Interactive Weather Map New forecast layout! Learn more

10-Day Weather Forecast

Advertisements
Track Severe Weather on mobile